Time,TemperatureF,DewpointF,PressureIn,WindDirection,WindDirectionDegrees,WindSpeedMPH,WindSpeedGustMPH,Humidity,HourlyPrecipIn,Conditions,Clouds,dailyrainin,SoftwareType,DateUTC
2017-02-20 00:01:00,43.0,21.5,30.19,SSW,202,0.9,0.9,42,0.00,,,0.00,VWS V15.00,2017-02-20 05:01:00,
2017-02-20 00:06:00,43.0,22.0,30.19,SSW,202,2.0,2.0,43,0.00,,,0.00,VWS V15.00,2017-02-20 05:06:00,
2017-02-20 00:11:00,43.0,22.0,30.19,SSW,202,0.0,0.0,43,0.00,,,0.00,VWS V15.00,2017-02-20 05:11:00,
2017-02-20 00:16:00,42.8,21.9,30.19,SSW,202,0.0,0.0,43,0.00,,,0.00,VWS V15.00,2017-02-20 05:16:00,
2017-02-20 00:21:00,42.4,21.5,30.22,SSW,202,0.0,0.0,43,0.00,,,0.00,VWS V15.00,2017-02-20 05:21:00,
2017-02-20 00:26:00,42.1,20.7,30.22,SSW,202,0.0,0.0,42,0.00,,,0.00,VWS V15.00,2017-02-20 05:26:00,
2017-02-20 00:31:00,41.7,19.8,30.22,SSW,202,0.0,0.0,41,0.00,,,0.00,VWS V15.00,2017-02-20 05:31:00,
2017-02-20 00:36:00,41.5,19.6,30.22,SSW,202,0.0,0.0,41,0.00,,,0.00,VWS V15.00,2017-02-20 05:36:00,
2017-02-20 00:41:00,41.5,19.6,30.22,SSW,202,0.0,0.0,41,0.00,,,0.00,VWS V15.00,2017-02-20 05:41:00,
2017-02-20 00:46:00,41.2,19.3,30.22,SSW,202,0.0,0.0,41,0.00,,,0.00,VWS V15.00,2017-02-20 05:46:00,
2017-02-20 00:51:00,41.0,19.1,30.22,SSW,202,0.0,0.0,41,0.00,,,0.00,VWS V15.00,2017-02-20 05:51:00,
2017-02-20 00:56:00,41.0,19.1,30.22,SSW,202,0.0,0.0,41,0.00,,,0.00,VWS V15.00,2017-02-20 05:56:00,
2017-02-20 01:01:00,41.0,19.7,30.22,SSW,202,0.0,0.0,42,0.00,,,0.00,VWS V15.00,2017-02-20 06:01:00,
2017-02-20 01:06:00,41.0,19.7,30.22,SSW,202,0.0,0.0,42,0.00,,,0.00,VWS V15.00,2017-02-20 06:06:00,
2017-02-20 01:11:00,40.8,20.1,30.22,SSW,202,0.0,0.0,43,0.00,,,0.00,VWS V15.00,2017-02-20 06:11:00,
2017-02-20 01:16:00,40.6,19.4,30.22,SSW,202,0.0,0.0,42,0.00,,,0.00,VWS V15.00,2017-02-20 06:16:00,
2017-02-20 01:21:00,40.6,19.4,30.22,SSW,202,0.0,0.0,42,0.00,,,0.00,VWS V15.00,2017-02-20 06:21:00,
2017-02-20 01:26:00,40.3,18.5,30.22,SSW,202,0.0,0.0,41,0.00,,,0.00,VWS V15.00,2017-02-20 06:26:00,
2017-02-20 01:31:00,40.1,18.3,30.22,SSW,202,0.0,0.0,41,0.00,,,0.00,VWS V15.00,2017-02-20 06:31:00,
2017-02-20 01:36:00,40.1,18.3,30.22,SSW,202,0.0,0.0,41,0.00,,,0.00,VWS V15.00,2017-02-20 06:36:00,
2017-02-20 01:41:00,40.1,18.3,30.22,SSW,202,0.0,0.0,41,0.00,,,0.00,VWS V15.00,2017-02-20 06:41:00,
2017-02-20 01:46:00,40.3,18.5,30.22,SSW,202,0.0,0.0,41,0.00,,,0.00,VWS V15.00,2017-02-20 06:46:00,
2017-02-20 01:51:00,40.1,18.3,30.22,SSW,202,0.0,0.0,41,0.00,,,0.00,VWS V15.00,2017-02-20 06:51:00,
2017-02-20 01:56:00,39.9,18.1,30.22,SSW,202,0.0,0.0,41,0.00,,,0.00,VWS V15.00,2017-02-20 06:56:00,
2017-02-20 02:01:00,39.9,18.1,30.22,SSW,202,0.0,0.0,41,0.00,,,0.00,VWS V15.00,2017-02-20 07:01:00,
2017-02-20 02:06:00,39.9,18.1,30.22,SSW,202,0.0,0.0,41,0.00,,,0.00,VWS V15.00,2017-02-20 07:06:00,
2017-02-20 02:11:00,39.9,18.1,30.22,SSW,202,0.0,0.0,41,0.00,,,0.00,VWS V15.00,2017-02-20 07:11:00,
2017-02-20 02:16:00,39.9,18.7,30.22,SSW,202,0.0,0.0,42,0.00,,,0.00,VWS V15.00,2017-02-20 07:16:00,
2017-02-20 02:21:00,39.9,18.7,30.22,SSW,202,0.0,0.0,42,0.00,,,0.00,VWS V15.00,2017-02-20 07:21:00,
2017-02-20 02:26:00,39.9,18.7,30.22,SSW,202,0.0,0.0,42,0.00,,,0.00,VWS V15.00,2017-02-20 07:26:00,
2017-02-20 02:31:00,39.7,19.1,30.22,SSW,202,0.0,0.0,43,0.00,,,0.00,VWS V15.00,2017-02-20 07:31:00,
2017-02-20 02:36:00,39.9,19.2,30.22,SSW,202,0.0,0.0,43,0.00,,,0.00,VWS V15.00,2017-02-20 07:36:00,
2017-02-20 02:41:00,39.7,19.1,30.22,SSW,202,0.0,0.0,43,0.00,,,0.00,VWS V15.00,2017-02-20 07:41:00,
2017-02-20 02:46:00,39.6,18.9,30.22,SSW,202,0.0,0.0,43,0.00,,,0.00,VWS V15.00,2017-02-20 07:46:00,
2017-02-20 02:51:00,39.4,18.8,30.22,SSW,202,0.0,0.0,43,0.00,,,0.00,VWS V15.00,2017-02-20 07:51:00,
2017-02-20 02:56:00,39.6,19.5,30.22,SSW,202,0.0,0.0,44,0.00,,,0.00,VWS V15.00,2017-02-20 07:56:00,
2017-02-20 03:01:00,39.4,18.8,30.22,SSW,202,0.0,0.0,43,0.00,,,0.00,VWS V15.00,2017-02-20 08:01:00,
2017-02-20 03:06:00,39.4,18.8,30.22,SSW,202,0.0,0.0,43,0.00,,,0.00,VWS V15.00,2017-02-20 08:06:00,
2017-02-20 03:11:00,39.6,19.5,30.22,SSW,202,0.0,0.0,44,0.00,,,0.00,VWS V15.00,2017-02-20 08:11:00,
2017-02-20 03:16:00,39.6,18.9,30.22,SSW,202,0.0,0.0,43,0.00,,,0.00,VWS V15.00,2017-02-20 08:16:00,
2017-02-20 03:21:00,39.7,19.6,30.22,SSW,202,0.0,0.0,44,0.00,,,0.00,VWS V15.00,2017-02-20 08:21:00,
2017-02-20 03:26:00,39.7,19.6,30.22,SSW,202,0.0,0.0,44,0.00,,,0.00,VWS V15.00,2017-02-20 08:26:00,
2017-02-20 03:31:00,39.7,19.6,30.22,SSW,202,0.0,0.0,44,0.00,,,0.00,VWS V15.00,2017-02-20 08:31:00,
2017-02-20 03:37:00,39.6,19.5,30.22,SSW,202,0.0,0.0,44,0.00,,,0.00,VWS V15.00,2017-02-20 08:37:00,
2017-02-20 03:42:00,39.7,19.6,30.22,SSW,202,0.0,0.0,44,0.00,,,0.00,VWS V15.00,2017-02-20 08:42:00,
2017-02-20 03:47:00,39.7,19.6,30.22,SSW,202,0.0,0.0,44,0.00,,,0.00,VWS V15.00,2017-02-20 08:47:00,
2017-02-20 03:49:00,39.6,19.5,30.22,SSW,202,0.0,0.0,44,0.00,,,0.00,VWS V15.00,2017-02-20 08:49:00,
2017-02-20 03:54:00,39.6,19.5,30.22,SSW,202,0.0,0.0,44,0.00,,,0.00,VWS V15.00,2017-02-20 08:54:00,
2017-02-20 04:00:00,39.6,19.5,30.22,SSW,202,0.0,0.0,44,0.00,,,0.00,VWS V15.00,2017-02-20 09:00:00,
2017-02-20 04:05:00,39.6,20.0,30.22,SSW,202,0.0,0.0,45,0.00,,,0.00,VWS V15.00,2017-02-20 09:05:00,
2017-02-20 04:10:00,39.4,19.3,30.22,SSW,202,0.0,0.0,44,0.00,,,0.00,VWS V15.00,2017-02-20 09:10:00,
2017-02-20 04:15:00,39.6,19.5,30.22,SSW,202,0.0,0.0,44,0.00,,,0.00,VWS V15.00,2017-02-20 09:15:00,
2017-02-20 04:20:00,39.4,19.3,30.22,SSW,202,0.0,0.0,44,0.00,,,0.00,VWS V15.00,2017-02-20 09:20:00,
2017-02-20 04:25:00,39.4,19.3,30.22,SSW,202,0.0,0.0,44,0.00,,,0.00,VWS V15.00,2017-02-20 09:25:00,
2017-02-20 04:30:00,39.4,19.3,30.22,SSW,202,0.0,0.0,44,0.00,,,0.00,VWS V15.00,2017-02-20 09:30:00,
2017-02-20 04:35:00,39.4,19.3,30.22,SSW,202,0.0,0.0,44,0.00,,,0.00,VWS V15.00,2017-02-20 09:35:00,
2017-02-20 04:40:00,39.2,19.1,30.22,SSW,202,0.0,0.0,44,0.00,,,0.00,VWS V15.00,2017-02-20 09:40:00,
2017-02-20 04:45:00,39.4,19.3,30.22,SSW,202,0.0,0.0,44,0.00,,,0.00,VWS V15.00,2017-02-20 09:45:00,
2017-02-20 04:50:00,39.4,19.3,30.22,SSW,202,0.0,0.0,44,0.00,,,0.00,VWS V15.00,2017-02-20 09:50:00,
2017-02-20 04:55:00,39.4,19.3,30.22,SSW,202,0.0,0.0,44,0.00,,,0.00,VWS V15.00,2017-02-20 09:55:00,
2017-02-20 05:00:00,39.2,19.1,30.22,SSW,202,0.0,0.0,44,0.00,,,0.00,VWS V15.00,2017-02-20 10:00:00,
2017-02-20 05:05:00,39.2,19.1,30.25,SSW,202,0.0,0.0,44,0.00,,,0.00,VWS V15.00,2017-02-20 10:05:00,
2017-02-20 05:10:00,39.2,19.7,30.25,SSW,202,0.0,0.0,45,0.00,,,0.00,VWS V15.00,2017-02-20 10:10:00,
2017-02-20 05:15:00,39.4,19.8,30.25,SSW,202,0.0,0.0,45,0.00,,,0.00,VWS V15.00,2017-02-20 10:15:00,
2017-02-20 05:20:00,39.4,19.8,30.25,SSW,202,0.0,0.0,45,0.00,,,0.00,VWS V15.00,2017-02-20 10:20:00,
2017-02-20 05:25:00,39.2,19.7,30.25,SSW,202,0.0,0.0,45,0.00,,,0.00,VWS V15.00,2017-02-20 10:25:00,
2017-02-20 05:30:00,39.2,19.7,30.25,SSW,202,2.5,2.5,45,0.00,,,0.00,VWS V15.00,2017-02-20 10:30:00,
2017-02-20 05:35:00,39.2,19.7,30.25,SSW,202,2.5,2.5,45,0.00,,,0.00,VWS V15.00,2017-02-20 10:35:00,
2017-02-20 05:40:00,39.0,20.0,30.25,SSW,202,2.5,2.5,46,0.00,,,0.00,VWS V15.00,2017-02-20 10:40:00,
2017-02-20 05:45:00,39.0,20.0,30.25,SSW,202,2.5,2.5,46,0.00,,,0.00,VWS V15.00,2017-02-20 10:45:00,
2017-02-20 05:50:00,38.8,19.8,30.25,SSW,202,2.5,2.5,46,0.00,,,0.00,VWS V15.00,2017-02-20 10:50:00,
2017-02-20 05:55:00,38.8,19.8,30.25,SSW,202,2.5,2.5,46,0.00,,,0.00,VWS V15.00,2017-02-20 10:55:00,
2017-02-20 06:00:00,38.8,19.8,30.25,SSW,202,2.5,2.5,46,0.00,,,0.00,VWS V15.00,2017-02-20 11:00:00,
2017-02-20 06:05:00,38.8,19.8,30.25,SSW,202,2.5,2.5,46,0.00,,,0.00,VWS V15.00,2017-02-20 11:05:00,
2017-02-20 06:10:00,38.7,20.2,30.25,SSW,202,2.5,2.5,47,0.00,,,0.00,VWS V15.00,2017-02-20 11:10:00,
2017-02-20 06:15:00,38.7,19.7,30.25,SSW,202,2.5,2.5,46,0.00,,,0.00,VWS V15.00,2017-02-20 11:15:00,
2017-02-20 06:20:00,38.7,20.2,30.28,SSW,202,2.5,2.5,47,0.00,,,0.00,VWS V15.00,2017-02-20 11:20:00,
2017-02-20 06:25:00,38.7,20.7,30.28,SSW,202,2.5,2.5,48,0.00,,,0.00,VWS V15.00,2017-02-20 11:25:00,
2017-02-20 06:30:00,38.7,20.7,30.28,SSW,202,2.5,2.5,48,0.00,,,0.00,VWS V15.00,2017-02-20 11:30:00,
2017-02-20 06:35:00,38.7,20.7,30.25,SSW,202,2.5,2.5,48,0.00,,,0.00,VWS V15.00,2017-02-20 11:35:00,
2017-02-20 06:40:00,38.7,20.7,30.25,SSW,202,2.5,2.5,48,0.00,,,0.00,VWS V15.00,2017-02-20 11:40:00,
2017-02-20 06:45:00,38.7,20.7,30.25,SSW,202,0.0,0.0,48,0.00,,,0.00,VWS V15.00,2017-02-20 11:45:00,
2017-02-20 06:50:00,38.7,21.2,30.25,SSW,202,0.0,0.0,49,0.00,,,0.00,VWS V15.00,2017-02-20 11:50:00,
2017-02-20 06:55:00,38.8,21.3,30.25,SSW,202,0.0,0.0,49,0.00,,,0.00,VWS V15.00,2017-02-20 11:55:00,
2017-02-20 07:00:00,38.7,20.7,30.25,SSW,202,0.0,0.0,48,0.00,,,0.00,VWS V15.00,2017-02-20 12:00:00,
2017-02-20 07:05:00,38.7,20.7,30.28,SSW,202,0.0,0.0,48,0.00,,,0.00,VWS V15.00,2017-02-20 12:05:00,
2017-02-20 07:10:00,38.8,21.3,30.28,SSW,202,0.0,0.0,49,0.00,,,0.00,VWS V15.00,2017-02-20 12:10:00,
2017-02-20 07:15:00,38.8,20.8,30.28,SSW,202,0.0,0.0,48,0.00,,,0.00,VWS V15.00,2017-02-20 12:15:00,
2017-02-20 07:20:00,38.8,21.3,30.28,SSW,202,1.1,1.1,49,0.00,,,0.00,VWS V15.00,2017-02-20 12:20:00,
2017-02-20 07:25:00,39.2,21.7,30.28,SSW,202,1.1,1.1,49,0.00,,,0.00,VWS V15.00,2017-02-20 12:25:00,
2017-02-20 07:30:00,39.4,21.8,30.28,SSW,202,1.1,1.1,49,0.00,,,0.00,VWS V15.00,2017-02-20 12:30:00,
2017-02-20 07:35:00,39.6,22.0,30.28,SSW,202,1.1,1.1,49,0.00,,,0.00,VWS V15.00,2017-02-20 12:35:00,
2017-02-20 07:40:00,39.7,22.2,30.28,SSW,202,1.1,1.1,49,0.00,,,0.00,VWS V15.00,2017-02-20 12:40:00,
2017-02-20 07:45:00,39.9,22.3,30.28,SSW,202,1.1,1.1,49,0.00,,,0.00,VWS V15.00,2017-02-20 12:45:00,
2017-02-20 07:50:00,39.9,22.3,30.28,SSW,202,1.1,1.1,49,0.00,,,0.00,VWS V15.00,2017-02-20 12:50:00,
2017-02-20 07:55:00,40.1,23.0,30.28,SSW,202,1.1,1.1,50,0.00,,,0.00,VWS V15.00,2017-02-20 12:55:00,
2017-02-20 08:00:00,40.5,23.3,30.28,SSW,202,1.1,1.1,50,0.00,,,0.00,VWS V15.00,2017-02-20 13:00:00,
2017-02-20 08:05:00,40.5,23.3,30.31,SSW,202,1.1,1.1,50,0.00,,,0.00,VWS V15.00,2017-02-20 13:05:00,
2017-02-20 08:10:00,41.0,23.3,30.31,SSW,202,1.1,1.1,49,0.00,,,0.00,VWS V15.00,2017-02-20 13:10:00,
2017-02-20 08:15:00,41.2,24.0,30.31,SSW,202,1.1,1.1,50,0.00,,,0.00,VWS V15.00,2017-02-20 13:15:00,
2017-02-20 08:20:00,41.5,23.8,30.28,SSW,202,1.1,1.1,49,0.00,,,0.00,VWS V15.00,2017-02-20 13:20:00,
2017-02-20 08:25:00,41.7,24.0,30.28,SSW,202,1.1,1.1,49,0.00,,,0.00,VWS V15.00,2017-02-20 13:25:00,
2017-02-20 08:30:00,41.7,24.0,30.28,SSW,202,1.1,1.1,49,0.00,,,0.00,VWS V15.00,2017-02-20 13:30:00,
2017-02-20 08:35:00,42.3,24.5,30.28,SSW,202,1.1,1.1,49,0.00,,,0.00,VWS V15.00,2017-02-20 13:35:00,
2017-02-20 08:40:00,42.4,24.6,30.28,SSW,202,1.1,1.1,49,0.00,,,0.00,VWS V15.00,2017-02-20 13:40:00,
2017-02-20 08:45:00,43.0,24.6,30.28,SSW,202,1.1,1.1,48,0.00,,,0.00,VWS V15.00,2017-02-20 13:45:00,
2017-02-20 08:50:00,43.3,25.0,30.28,SSW,202,1.1,1.1,48,0.00,,,0.00,VWS V15.00,2017-02-20 13:50:00,
2017-02-20 08:55:00,43.7,25.3,30.28,SSW,202,1.1,1.1,48,0.00,,,0.00,VWS V15.00,2017-02-20 13:55:00,
2017-02-20 09:00:00,44.1,25.6,30.28,SSW,202,1.1,1.1,48,0.00,,,0.00,VWS V15.00,2017-02-20 14:00:00,
2017-02-20 09:05:00,44.1,25.1,30.28,SSW,202,1.1,1.1,47,0.00,,,0.00,VWS V15.00,2017-02-20 14:05:00,
2017-02-20 09:10:00,44.2,25.3,30.28,SSW,202,1.1,1.1,47,0.00,,,0.00,VWS V15.00,2017-02-20 14:10:00,
2017-02-20 09:15:00,44.8,25.8,30.28,SSW,202,1.1,1.1,47,0.00,,,0.00,VWS V15.00,2017-02-20 14:15:00,
2017-02-20 09:20:00,45.1,25.6,30.28,SE,135,2.0,2.0,46,0.00,,,0.00,VWS V15.00,2017-02-20 14:20:00,
2017-02-20 09:25:00,45.9,26.3,30.28,SE,135,2.0,2.0,46,0.00,,,0.00,VWS V15.00,2017-02-20 14:25:00,
2017-02-20 09:30:00,46.4,26.8,30.28,SE,135,2.0,2.0,46,0.00,,,0.00,VWS V15.00,2017-02-20 14:30:00,
2017-02-20 09:35:00,46.8,26.6,30.28,SE,135,0.9,0.9,45,0.00,,,0.00,VWS V15.00,2017-02-20 14:35:00,
2017-02-20 09:40:00,46.9,26.7,30.28,SE,135,0.9,0.9,45,0.00,,,0.00,VWS V15.00,2017-02-20 14:40:00,
2017-02-20 09:45:00,47.1,26.9,30.28,SE,135,0.9,0.9,45,0.00,,,0.00,VWS V15.00,2017-02-20 14:45:00,
2017-02-20 09:50:00,47.3,27.6,30.28,SE,135,0.9,0.9,46,0.00,,,0.00,VWS V15.00,2017-02-20 14:50:00,
2017-02-20 09:55:00,47.7,27.4,30.28,SE,135,0.9,0.9,45,0.00,,,0.00,VWS V15.00,2017-02-20 14:55:00,
2017-02-20 10:00:00,48.2,27.9,30.28,SE,135,0.9,0.9,45,0.00,,,0.00,VWS V15.00,2017-02-20 15:00:00,
2017-02-20 10:05:00,48.7,28.4,30.28,SE,135,0.9,0.9,45,0.00,,,0.00,VWS V15.00,2017-02-20 15:05:00,
2017-02-20 10:10:00,49.1,28.7,30.28,SE,135,0.9,0.9,45,0.00,,,0.00,VWS V15.00,2017-02-20 15:10:00,
2017-02-20 10:15:00,49.8,28.8,30.28,SE,135,0.9,0.9,44,0.00,,,0.00,VWS V15.00,2017-02-20 15:15:00,
2017-02-20 10:20:00,50.5,28.9,30.25,SE,135,0.9,0.9,43,0.00,,,0.00,VWS V15.00,2017-02-20 15:20:00,
2017-02-20 10:25:00,50.9,29.2,30.25,SE,135,2.7,2.7,43,0.00,,,0.00,VWS V15.00,2017-02-20 15:25:00,
2017-02-20 10:30:00,51.4,29.1,30.25,SE,135,2.7,2.7,42,0.00,,,0.00,VWS V15.00,2017-02-20 15:30:00,
2017-02-20 10:35:00,51.8,28.9,30.25,SE,135,2.7,2.7,41,0.00,,,0.00,VWS V15.00,2017-02-20 15:35:00,
2017-02-20 10:40:00,51.8,28.9,30.25,ESE,112,2.0,2.0,41,0.00,,,0.00,VWS V15.00,2017-02-20 15:40:00,
2017-02-20 10:46:00,53.1,29.4,30.25,SE,135,2.0,2.0,40,0.00,,,0.00,VWS V15.00,2017-02-20 15:46:00,
2017-02-20 10:51:00,53.8,29.4,30.28,SE,135,2.5,2.5,39,0.00,,,0.00,VWS V15.00,2017-02-20 15:51:00,
2017-02-20 10:56:00,54.3,29.3,30.28,SE,135,1.6,1.6,38,0.00,,,0.00,VWS V15.00,2017-02-20 15:56:00,
2017-02-20 11:01:00,55.0,29.3,30.28,ESE,112,4.0,4.0,37,0.00,,,0.00,VWS V15.00,2017-02-20 16:01:00,
2017-02-20 11:06:00,55.2,29.4,30.25,SSE,158,1.3,1.3,37,0.00,,,0.00,VWS V15.00,2017-02-20 16:06:00,
2017-02-20 11:11:00,55.4,28.9,30.25,SSE,158,1.3,1.3,36,0.00,,,0.00,VWS V15.00,2017-02-20 16:11:00,
2017-02-20 11:16:00,55.4,28.9,30.25,SSE,158,1.3,1.3,36,0.00,,,0.00,VWS V15.00,2017-02-20 16:16:00,
2017-02-20 11:21:00,54.9,28.4,30.28,SSE,158,1.3,1.3,36,0.00,,,0.00,VWS V15.00,2017-02-20 16:21:00,
2017-02-20 11:26:00,54.7,28.3,30.28,SSE,158,1.3,1.3,36,0.00,,,0.00,VWS V15.00,2017-02-20 16:26:00,
2017-02-20 11:31:00,55.0,28.6,30.28,NE,45,3.6,3.6,36,0.00,,,0.00,VWS V15.00,2017-02-20 16:31:00,
2017-02-20 11:36:00,55.8,28.5,30.28,NE,45,3.6,3.6,35,0.00,,,0.00,VWS V15.00,2017-02-20 16:36:00,
2017-02-20 11:41:00,56.7,28.6,30.28,NE,45,3.6,3.6,34,0.00,,,0.00,VWS V15.00,2017-02-20 16:41:00,
2017-02-20 11:46:00,57.6,29.4,30.28,East,90,3.8,3.8,34,0.00,,,0.00,VWS V15.00,2017-02-20 16:46:00,
2017-02-20 11:51:00,57.9,29.0,30.25,East,90,3.8,3.8,33,0.00,,,0.00,VWS V15.00,2017-02-20 16:51:00,
2017-02-20 11:56:00,58.8,28.3,30.25,East,90,3.8,3.8,31,0.00,,,0.00,VWS V15.00,2017-02-20 16:56:00,
2017-02-20 12:01:00,59.2,27.0,30.25,ESE,112,2.2,2.2,29,0.00,,,0.00,VWS V15.00,2017-02-20 17:01:00,
2017-02-20 12:06:00,59.7,27.4,30.25,NE,45,5.4,5.4,29,0.00,,,0.00,VWS V15.00,2017-02-20 17:06:00,
2017-02-20 12:11:00,60.4,28.9,30.25,NE,45,2.2,2.2,30,0.00,,,0.00,VWS V15.00,2017-02-20 17:11:00,
2017-02-20 12:16:00,60.4,28.1,30.25,NE,45,2.2,2.2,29,0.00,,,0.00,VWS V15.00,2017-02-20 17:16:00,
2017-02-20 12:17:00,60.4,28.1,30.25,NE,45,2.2,2.2,29,0.00,,,0.00,VWS V15.00,2017-02-20 17:17:00,
2017-02-20 12:22:00,60.8,28.4,30.22,NE,45,2.2,2.2,29,0.00,,,0.00,VWS V15.00,2017-02-20 17:22:00,
2017-02-20 12:28:00,61.0,27.7,30.22,NE,45,2.2,2.2,28,0.00,,,0.00,VWS V15.00,2017-02-20 17:28:00,
2017-02-20 12:32:00,61.0,27.7,30.22,East,90,3.4,3.4,28,0.00,,,0.00,VWS V15.00,2017-02-20 17:32:00,
2017-02-20 12:37:00,61.7,27.4,30.22,East,90,3.4,3.4,27,0.00,,,0.00,VWS V15.00,2017-02-20 17:37:00,
2017-02-20 12:42:00,62.1,28.6,30.22,East,90,3.4,3.4,28,0.00,,,0.00,VWS V15.00,2017-02-20 17:42:00,
2017-02-20 12:48:00,62.2,27.9,30.22,ENE,68,2.9,2.9,27,0.00,,,0.00,VWS V15.00,2017-02-20 17:48:00,
2017-02-20 12:53:00,62.6,27.3,30.22,ENE,68,2.9,2.9,26,0.00,,,0.00,VWS V15.00,2017-02-20 17:53:00,
2017-02-20 12:58:00,63.0,27.6,30.22,ENE,68,2.9,2.9,26,0.00,,,0.00,VWS V15.00,2017-02-20 17:58:00,
2017-02-20 13:03:00,63.5,28.0,30.22,ENE,68,2.9,2.9,26,0.00,,,0.00,VWS V15.00,2017-02-20 18:03:00,
2017-02-20 13:08:00,64.0,27.5,30.22,ENE,68,2.9,2.9,25,0.00,,,0.00,VWS V15.00,2017-02-20 18:08:00,
2017-02-20 13:13:00,64.6,28.0,30.22,ENE,68,2.9,2.9,25,0.00,,,0.00,VWS V15.00,2017-02-20 18:13:00,
2017-02-20 13:18:00,65.3,27.6,30.22,ENE,68,2.9,2.9,24,0.00,,,0.00,VWS V15.00,2017-02-20 18:18:00,
2017-02-20 13:24:00,65.3,27.6,30.19,South,180,6.0,6.0,24,0.00,,,0.00,VWS V15.00,2017-02-20 18:24:00,
2017-02-20 13:28:00,65.7,27.9,30.19,South,180,1.1,1.1,24,0.00,,,0.00,VWS V15.00,2017-02-20 18:28:00,
2017-02-20 13:34:00,65.8,27.0,30.19,South,180,3.1,3.1,23,0.00,,,0.00,VWS V15.00,2017-02-20 18:34:00,
2017-02-20 13:39:00,66.2,27.3,30.19,SE,135,5.8,5.8,23,0.00,,,0.00,VWS V15.00,2017-02-20 18:39:00,
2017-02-20 13:44:00,65.8,27.0,30.19,SE,135,5.8,5.8,23,0.00,,,0.00,VWS V15.00,2017-02-20 18:44:00,
2017-02-20 13:48:00,66.0,27.2,30.19,SSE,158,4.3,4.3,23,0.00,,,0.00,VWS V15.00,2017-02-20 18:48:00,
2017-02-20 13:54:00,65.3,23.2,30.19,SSE,158,4.3,4.3,20,0.00,,,0.00,VWS V15.00,2017-02-20 18:54:00,
2017-02-20 13:59:00,65.5,23.4,30.19,SSE,158,4.3,4.3,20,0.00,,,0.00,VWS V15.00,2017-02-20 18:59:00,
2017-02-20 14:04:00,65.7,23.5,30.19,SSE,158,4.3,4.3,20,0.00,,,0.00,VWS V15.00,2017-02-20 19:04:00,
2017-02-20 14:09:00,65.8,23.7,30.16,SSE,158,4.3,4.3,20,0.00,,,0.00,VWS V15.00,2017-02-20 19:09:00,
2017-02-20 14:14:00,67.1,20.9,30.16,South,180,6.3,6.3,17,0.00,,,0.00,VWS V15.00,2017-02-20 19:14:00,
2017-02-20 14:19:00,67.1,20.9,30.16,South,180,6.3,6.3,17,0.00,,,0.00,VWS V15.00,2017-02-20 19:19:00,
2017-02-20 14:25:00,67.6,18.4,30.16,South,180,4.0,4.0,15,0.00,,,0.00,VWS V15.00,2017-02-20 19:25:00,
2017-02-20 14:30:00,68.2,18.8,30.16,SE,135,3.8,3.8,15,0.00,,,0.00,VWS V15.00,2017-02-20 19:30:00,
2017-02-20 14:35:00,68.5,19.1,30.16,SE,135,3.8,3.8,15,0.00,,,0.00,VWS V15.00,2017-02-20 19:35:00,
2017-02-20 14:40:00,68.4,19.0,30.16,SE,135,3.8,3.8,15,0.00,,,0.00,VWS V15.00,2017-02-20 19:40:00,
2017-02-20 14:46:00,67.8,18.5,30.16,SE,135,3.8,3.8,15,0.00,,,0.00,VWS V15.00,2017-02-20 19:46:00,
2017-02-20 14:51:00,67.5,18.2,30.14,SE,135,2.7,2.7,15,0.00,,,0.00,VWS V15.00,2017-02-20 19:51:00,
2017-02-20 14:56:00,68.0,18.7,30.14,SE,135,2.7,2.7,15,0.00,,,0.00,VWS V15.00,2017-02-20 19:56:00,
2017-02-20 15:01:00,68.4,13.8,30.14,SE,135,4.0,4.0,12,0.00,,,0.00,VWS V15.00,2017-02-20 20:01:00,
2017-02-20 15:06:00,68.4,19.0,30.16,East,90,7.2,7.2,15,0.00,,,0.00,VWS V15.00,2017-02-20 20:06:00,
2017-02-20 15:11:00,67.8,13.4,30.16,ESE,112,3.8,3.8,12,0.00,,,0.00,VWS V15.00,2017-02-20 20:11:00,
2017-02-20 15:16:00,67.8,13.4,30.16,SSE,158,4.0,4.0,12,0.00,,,0.00,VWS V15.00,2017-02-20 20:16:00,
2017-02-20 15:21:00,68.5,13.9,30.16,East,90,3.6,3.6,12,0.00,,,0.00,VWS V15.00,2017-02-20 20:21:00,
2017-02-20 15:26:00,69.6,14.8,30.16,SSE,158,5.6,5.6,12,0.00,,,0.00,VWS V15.00,2017-02-20 20:26:00,
2017-02-20 15:31:00,70.5,15.5,30.16,SSE,158,5.6,5.6,12,0.00,,,0.00,VWS V15.00,2017-02-20 20:31:00,
2017-02-20 15:36:00,70.7,15.6,30.16,SSE,158,5.6,5.6,12,0.00,,,0.00,VWS V15.00,2017-02-20 20:36:00,
2017-02-20 15:38:00,70.2,15.2,30.16,SE,135,6.5,6.5,12,0.00,,,0.00,VWS V15.00,2017-02-20 20:38:00,
2017-02-20 15:43:00,69.1,14.4,30.16,South,180,4.9,4.9,12,0.00,,,0.00,VWS V15.00,2017-02-20 20:43:00,
2017-02-20 15:48:00,68.9,14.2,30.16,South,180,4.9,4.9,12,0.00,,,0.00,VWS V15.00,2017-02-20 20:48:00,
2017-02-20 15:53:00,69.4,14.6,30.14,SE,135,5.4,5.4,12,0.00,,,0.00,VWS V15.00,2017-02-20 20:53:00,
2017-02-20 15:58:00,69.6,14.8,30.14,SE,135,3.1,3.1,12,0.00,,,0.00,VWS V15.00,2017-02-20 20:58:00,
2017-02-20 16:03:00,69.6,14.8,30.14,South,180,2.7,2.7,12,0.00,,,0.00,VWS V15.00,2017-02-20 21:03:00,
2017-02-20 16:09:00,69.4,14.6,30.14,SE,135,5.4,5.4,12,0.00,,,0.00,VWS V15.00,2017-02-20 21:09:00,
2017-02-20 16:14:00,69.4,14.6,30.14,ESE,112,4.3,4.3,12,0.00,,,0.00,VWS V15.00,2017-02-20 21:14:00,
2017-02-20 16:19:00,69.1,14.4,30.14,NE,45,4.7,4.7,12,0.00,,,0.00,VWS V15.00,2017-02-20 21:19:00,
2017-02-20 16:24:00,68.4,13.8,30.14,South,180,4.0,4.0,12,0.00,,,0.00,VWS V15.00,2017-02-20 21:24:00,
2017-02-20 16:29:00,68.4,13.8,30.14,SE,135,3.1,3.1,12,0.00,,,0.00,VWS V15.00,2017-02-20 21:29:00,
2017-02-20 16:34:00,67.8,13.4,30.14,East,90,6.5,6.5,12,0.00,,,0.00,VWS V15.00,2017-02-20 21:34:00,
2017-02-20 16:39:00,67.5,13.1,30.14,East,90,3.8,3.8,12,0.00,,,0.00,VWS V15.00,2017-02-20 21:39:00,
2017-02-20 16:45:00,66.7,12.5,30.14,East,90,7.2,7.2,12,0.00,,,0.00,VWS V15.00,2017-02-20 21:45:00,
2017-02-20 16:50:00,66.4,12.3,30.14,SE,135,1.6,1.6,12,0.00,,,0.00,VWS V15.00,2017-02-20 21:50:00,
2017-02-20 16:55:00,66.4,12.3,30.11,East,90,4.3,4.3,12,0.00,,,0.00,VWS V15.00,2017-02-20 21:55:00,
2017-02-20 17:01:00,65.8,13.6,30.11,SE,135,5.8,5.8,13,0.00,,,0.00,VWS V15.00,2017-02-20 22:01:00,
2017-02-20 17:06:00,65.3,13.2,30.11,ESE,112,7.8,7.8,13,0.00,,,0.00,VWS V15.00,2017-02-20 22:06:00,
2017-02-20 17:11:00,64.9,12.9,30.11,SSE,158,3.1,3.1,13,0.00,,,0.00,VWS V15.00,2017-02-20 22:11:00,
2017-02-20 17:16:00,64.6,6.8,30.11,East,90,3.8,3.8,10,0.00,,,0.00,VWS V15.00,2017-02-20 22:16:00,
2017-02-20 17:21:00,64.2,8.6,30.11,ESE,112,3.6,3.6,11,0.00,,,0.00,VWS V15.00,2017-02-20 22:21:00,
2017-02-20 17:26:00,63.9,8.4,30.11,SE,135,7.8,7.8,11,0.00,,,0.00,VWS V15.00,2017-02-20 22:26:00,
2017-02-20 17:32:00,63.3,7.9,30.11,ESE,112,3.8,3.8,11,0.00,,,0.00,VWS V15.00,2017-02-20 22:32:00,
2017-02-20 17:37:00,63.0,7.7,30.14,SE,135,3.1,3.1,11,0.00,,,0.00,VWS V15.00,2017-02-20 22:37:00,
2017-02-20 17:42:00,62.6,7.4,30.14,ESE,112,3.1,3.1,11,0.00,,,0.00,VWS V15.00,2017-02-20 22:42:00,
2017-02-20 17:47:00,62.1,7.0,30.14,SE,135,3.4,3.4,11,0.00,,,0.00,VWS V15.00,2017-02-20 22:47:00,
2017-02-20 17:52:00,61.9,6.8,30.14,East,90,1.3,1.3,11,0.00,,,0.00,VWS V15.00,2017-02-20 22:52:00,
2017-02-20 17:57:00,61.3,6.4,30.14,SE,135,3.6,3.6,11,0.00,,,0.00,VWS V15.00,2017-02-20 22:57:00,
2017-02-20 18:02:00,61.0,6.1,30.14,SE,135,3.1,3.1,11,0.00,,,0.00,VWS V15.00,2017-02-20 23:02:00,
2017-02-20 18:07:00,60.4,7.6,30.14,SE,135,2.7,2.7,12,0.00,,,0.00,VWS V15.00,2017-02-20 23:07:00,
2017-02-20 18:12:00,60.1,7.3,30.14,SE,135,1.1,1.1,12,0.00,,,0.00,VWS V15.00,2017-02-20 23:12:00,
2017-02-20 18:17:00,59.5,6.9,30.14,East,90,1.3,1.3,12,0.00,,,0.00,VWS V15.00,2017-02-20 23:17:00,
2017-02-20 18:22:00,59.4,6.8,30.14,South,180,1.3,1.3,12,0.00,,,0.00,VWS V15.00,2017-02-20 23:22:00,
2017-02-20 18:27:00,58.8,6.3,30.14,SE,135,3.1,3.1,12,0.00,,,0.00,VWS V15.00,2017-02-20 23:27:00,
2017-02-20 18:32:00,58.5,6.1,30.14,SE,135,1.3,1.3,12,0.00,,,0.00,VWS V15.00,2017-02-20 23:32:00,
2017-02-20 18:37:00,57.9,5.6,30.14,SE,135,2.9,2.9,12,0.00,,,0.00,VWS V15.00,2017-02-20 23:37:00,
2017-02-20 18:42:00,57.6,5.3,30.14,SE,135,2.5,2.5,12,0.00,,,0.00,VWS V15.00,2017-02-20 23:42:00,
2017-02-20 18:47:00,57.2,5.1,30.14,SE,135,3.8,3.8,12,0.00,,,0.00,VWS V15.00,2017-02-20 23:47:00,
2017-02-20 18:52:00,57.0,4.9,30.14,SE,135,3.8,3.8,12,0.00,,,0.00,VWS V15.00,2017-02-20 23:52:00,
2017-02-20 18:57:00,56.8,4.8,30.14,East,90,3.8,3.8,12,0.00,,,0.00,VWS V15.00,2017-02-20 23:57:00,
2017-02-20 19:02:00,56.8,4.8,30.14,East,90,2.7,2.7,12,0.00,,,0.00,VWS V15.00,2017-02-21 00:02:00,
2017-02-20 19:07:00,56.5,4.5,30.14,ESE,112,2.9,2.9,12,0.00,,,0.00,VWS V15.00,2017-02-21 00:07:00,